sensor_id;sensor_type;location;lat;lon;timestamp;pressure;altitude;pressure_sealevel;temperature;humidity
55044;BME280;54902;50.420;18.854;2023-04-27T00:00:30;101508.55;;;5.05;56.82
55044;BME280;54902;50.420;18.854;2023-04-27T00:01:08;101506.74;;;5.05;56.81
55044;BME280;54902;50.420;18.854;2023-04-27T00:01:40;101507.60;;;5.06;56.79
55044;BME280;54902;50.420;18.854;2023-04-27T00:02:11;101505.84;;;5.05;56.82
55044;BME280;54902;50.420;18.854;2023-04-27T00:02:43;101494.06;;;5.06;56.83
55044;BME280;54902;50.420;18.854;2023-04-27T00:03:14;101502.19;;;5.06;56.83
55044;BME280;54902;50.420;18.854;2023-04-27T00:03:45;101496.77;;;5.06;56.85
55044;BME280;54902;50.420;18.854;2023-04-27T00:04:16;101507.60;;;5.06;56.84
55044;BME280;54902;50.420;18.854;2023-04-27T00:04:49;101495.91;;;5.05;56.85
55044;BME280;54902;50.420;18.854;2023-04-27T00:05:21;101503.05;;;5.06;56.88
55044;BME280;54902;50.420;18.854;2023-04-27T00:05:52;101496.77;;;5.06;56.89
55044;BME280;54902;50.420;18.854;2023-04-27T00:06:23;101503.01;;;5.08;56.93
55044;BME280;54902;50.420;18.854;2023-04-27T00:06:56;101510.23;;;5.07;56.97
55044;BME280;54902;50.420;18.854;2023-04-27T00:07:27;101503.05;;;5.06;56.98
55044;BME280;54902;50.420;18.854;2023-04-27T00:07:58;101501.24;;;5.07;56.97
55044;BME280;54902;50.420;18.854;2023-04-27T00:08:29;101508.42;;;5.08;57.04
55044;BME280;54902;50.420;18.854;2023-04-27T00:09:01;101503.87;;;5.08;57.03
55044;BME280;54902;50.420;18.854;2023-04-27T00:09:33;101502.11;;;5.07;57.02
55044;BME280;54902;50.420;18.854;2023-04-27T00:10:05;101505.71;;;5.08;57.04
55044;BME280;54902;50.420;18.854;2023-04-27T00:10:36;101507.52;;;5.07;57.03
55044;BME280;54902;50.420;18.854;2023-04-27T00:11:07;101503.01;;;5.08;57.02
55044;BME280;54902;50.420;18.854;2023-04-27T00:11:38;101503.01;;;5.08;57.01
55044;BME280;54902;50.420;18.854;2023-04-27T00:12:10;101505.71;;;5.08;56.97
55044;BME280;54902;50.420;18.854;2023-04-27T00:12:41;101504.81;;;5.07;56.99
55044;BME280;54902;50.420;18.854;2023-04-27T00:13:12;101501.16;;;5.08;56.98
55044;BME280;54902;50.420;18.854;2023-04-27T00:13:43;101508.42;;;5.08;56.99
55044;BME280;54902;50.420;18.854;2023-04-27T00:14:14;101503.01;;;5.08;56.98
55044;BME280;54902;50.420;18.854;2023-04-27T00:14:46;101505.71;;;5.08;57.05
55044;BME280;54902;50.420;18.854;2023-04-27T00:15:17;101511.13;;;5.08;57.06
55044;BME280;54902;50.420;18.854;2023-04-27T00:15:48;101506.58;;;5.08;56.96
55044;BME280;54902;50.420;18.854;2023-04-27T00:16:19;101504.74;;;5.09;57.02
55044;BME280;54902;50.420;18.854;2023-04-27T00:16:50;101502.03;;;5.09;57.06
55044;BME280;54902;50.420;18.854;2023-04-27T00:17:21;101506.58;;;5.08;57.06
55044;BME280;54902;50.420;18.854;2023-04-27T00:17:52;101497.73;;;5.05;56.99
55044;BME280;54902;50.420;18.854;2023-04-27T00:18:23;101502.03;;;5.09;57.12
55044;BME280;54902;50.420;18.854;2023-04-27T00:18:54;101508.42;;;5.08;57.10
55044;BME280;54902;50.420;18.854;2023-04-27T00:19:25;101501.16;;;5.08;57.13
55044;BME280;54902;50.420;18.854;2023-04-27T00:19:56;101502.03;;;5.09;57.13
55044;BME280;54902;50.420;18.854;2023-04-27T00:20:27;101506.58;;;5.08;57.13
55044;BME280;54902;50.420;18.854;2023-04-27T00:20:58;101503.87;;;5.08;57.15
55044;BME280;54902;50.420;18.854;2023-04-27T00:21:29;101503.87;;;5.08;57.09
55044;BME280;54902;50.420;18.854;2023-04-27T00:22:01;101483.70;;;4.97;57.12
55044;BME280;54902;50.420;18.854;2023-04-27T00:22:31;101502.03;;;5.09;57.15
55044;BME280;54902;50.420;18.854;2023-04-27T00:23:02;101502.03;;;5.09;57.15
55044;BME280;54902;50.420;18.854;2023-04-27T00:23:34;101502.84;;;5.11;57.16
55044;BME280;54902;50.420;18.854;2023-04-27T00:24:05;101497.52;;;5.09;57.18
55044;BME280;54902;50.420;18.854;2023-04-27T00:24:36;101503.79;;;5.10;57.21
55044;BME280;54902;50.420;18.854;2023-04-27T00:25:08;101503.79;;;5.10;57.18
55044;BME280;54902;50.420;18.854;2023-04-27T00:25:39;101498.38;;;5.10;57.19
55044;BME280;54902;50.420;18.854;2023-04-27T00:26:09;101506.50;;;5.10;57.17
55044;BME280;54902;50.420;18.854;2023-04-27T00:26:40;101500.13;;;5.11;57.15
55044;BME280;54902;50.420;18.854;2023-04-27T00:27:11;101497.44;;;5.11;57.16
55044;BME280;54902;50.420;18.854;2023-04-27T00:27:43;101501.08;;;5.10;57.18
55044;BME280;54902;50.420;18.854;2023-04-27T00:28:14;101496.53;;;5.10;57.17
55044;BME280;54902;50.420;18.854;2023-04-27T00:28:45;101494.72;;;5.11;57.16
55044;BME280;54902;50.420;18.854;2023-04-27T00:29:16;101502.84;;;5.11;57.15
55044;BME280;54902;50.420;18.854;2023-04-27T00:29:47;101503.79;;;5.10;57.18
55044;BME280;54902;50.420;18.854;2023-04-27T00:30:18;101497.52;;;5.09;57.19
55044;BME280;54902;50.420;18.854;2023-04-27T00:30:49;101499.24;;;5.10;57.17
55044;BME280;54902;50.420;18.854;2023-04-27T00:31:24;101499.24;;;5.10;57.16
55044;BME280;54902;50.420;18.854;2023-04-27T00:31:55;101501.00;;;5.11;57.15
55044;BME280;54902;50.420;18.854;2023-04-27T00:32:26;101494.72;;;5.11;57.19
55044;BME280;54902;50.420;18.854;2023-04-27T00:32:57;101494.72;;;5.11;57.19
55044;BME280;54902;50.420;18.854;2023-04-27T00:33:28;101497.44;;;5.11;57.20
55044;BME280;54902;50.420;18.854;2023-04-27T00:33:59;101493.77;;;5.12;57.19
55044;BME280;54902;50.420;18.854;2023-04-27T00:34:30;101498.20;;;5.13;57.19
55044;BME280;54902;50.420;18.854;2023-04-27T00:35:01;101500.05;;;5.12;57.20
55044;BME280;54902;50.420;18.854;2023-04-27T00:35:32;101496.48;;;5.12;57.23
55044;BME280;54902;50.420;18.854;2023-04-27T00:36:03;101500.05;;;5.12;57.27
55044;BME280;54902;50.420;18.854;2023-04-27T00:36:34;101494.56;;;5.14;57.22
55044;BME280;54902;50.420;18.854;2023-04-27T00:37:05;101499.11;;;5.13;57.21
55044;BME280;54902;50.420;18.854;2023-04-27T00:37:37;101495.51;;;5.13;57.21
55044;BME280;54902;50.420;18.854;2023-04-27T00:38:08;101499.98;;;5.14;57.19
55044;BME280;54902;50.420;18.854;2023-04-27T00:38:38;101499.98;;;5.14;57.22
55044;BME280;54902;50.420;18.854;2023-04-27T00:39:10;101490.00;;;5.14;57.22
55044;BME280;54902;50.420;18.854;2023-04-27T00:39:41;101498.13;;;5.14;57.24
55044;BME280;54902;50.420;18.854;2023-04-27T00:40:12;101475.11;;;5.06;57.25
55044;BME280;54902;50.420;18.854;2023-04-27T00:40:43;101490.17;;;5.11;57.23
55044;BME280;54902;50.420;18.854;2023-04-27T00:41:14;101499.88;;;5.15;57.23
55044;BME280;54902;50.420;18.854;2023-04-27T00:41:45;101496.32;;;5.15;57.25
55044;BME280;54902;50.420;18.854;2023-04-27T00:42:16;101498.08;;;5.16;57.27
55044;BME280;54902;50.420;18.854;2023-04-27T00:42:49;101499.03;;;5.15;57.24
55044;BME280;54902;50.420;18.854;2023-04-27T00:43:20;101497.19;;;5.15;57.25
55044;BME280;54902;50.420;18.854;2023-04-27T00:43:51;101501.74;;;5.15;57.26
55044;BME280;54902;50.420;18.854;2023-04-27T00:44:23;101500.84;;;5.14;57.25
55044;BME280;54902;50.420;18.854;2023-04-27T00:44:56;101503.50;;;5.16;57.25
55044;BME280;54902;50.420;18.854;2023-04-27T00:45:28;101506.21;;;5.16;57.29
55044;BME280;54902;50.420;18.854;2023-04-27T00:45:59;101501.74;;;5.15;57.27
55044;BME280;54902;50.420;18.854;2023-04-27T00:46:31;101500.79;;;5.16;57.27
55044;BME280;54902;50.420;18.854;2023-04-27T00:47:03;101495.38;;;5.16;57.23
55044;BME280;54902;50.420;18.854;2023-04-27T00:47:35;101494.48;;;5.15;57.23
55044;BME280;54902;50.420;18.854;2023-04-27T00:48:06;101503.50;;;5.16;57.23
55044;BME280;54902;50.420;18.854;2023-04-27T00:48:37;101500.79;;;5.16;57.25
55044;BME280;54902;50.420;18.854;2023-04-27T00:49:08;101503.50;;;5.16;57.25
55044;BME280;54902;50.420;18.854;2023-04-27T00:49:40;101500.79;;;5.16;57.27
55044;BME280;54902;50.420;18.854;2023-04-27T00:50:11;101502.59;;;5.15;57.25
55044;BME280;54902;50.420;18.854;2023-04-27T00:50:42;101496.32;;;5.15;57.29
55044;BME280;54902;50.420;18.854;2023-04-27T00:51:13;101492.23;;;5.06;57.29
55044;BME280;54902;50.420;18.854;2023-04-27T00:51:44;101505.30;;;5.15;57.31
55044;BME280;54902;50.420;18.854;2023-04-27T00:52:15;101507.15;;;5.15;57.32
55044;BME280;54902;50.420;18.854;2023-04-27T00:52:46;101504.45;;;5.15;57.34
55044;BME280;54902;50.420;18.854;2023-04-27T00:53:18;101503.55;;;5.14;57.33
55044;BME280;54902;50.420;18.854;2023-04-27T00:53:51;101502.59;;;5.15;57.35
55044;BME280;54902;50.420;18.854;2023-04-27T00:54:23;101508.91;;;5.16;57.35
55044;BME280;54902;50.420;18.854;2023-04-27T00:54:56;101501.74;;;5.15;57.36
55044;BME280;54902;50.420;18.854;2023-04-27T00:55:27;101508.96;;;5.14;57.37
55044;BME280;54902;50.420;18.854;2023-04-27T00:55:58;101502.68;;;5.14;57.38
55044;BME280;54902;50.420;18.854;2023-04-27T00:56:29;101505.39;;;5.14;57.39
55044;BME280;54902;50.420;18.854;2023-04-27T00:57:01;101508.10;;;5.14;57.37
55044;BME280;54902;50.420;18.854;2023-04-27T00:57:33;101510.81;;;5.14;57.33
55044;BME280;54902;50.420;18.854;2023-04-27T00:58:05;101510.81;;;5.14;57.36
55044;BME280;54902;50.420;18.854;2023-04-27T00:58:36;101503.63;;;5.13;57.34
55044;BME280;54902;50.420;18.854;2023-04-27T00:59:07;101509.04;;;5.13;57.38
55044;BME280;54902;50.420;18.854;2023-04-27T00:59:37;101510.81;;;5.14;57.33
55044;BME280;54902;50.420;18.854;2023-04-27T01:00:10;101509.04;;;5.13;57.30
55044;BME280;54902;50.420;18.854;2023-04-27T01:00:41;101503.63;;;5.13;57.34
55044;BME280;54902;50.420;18.854;2023-04-27T01:01:12;101503.71;;;5.11;57.36
55044;BME280;54902;50.420;18.854;2023-04-27T01:01:46;101513.60;;;5.12;57.36
55044;BME280;54902;50.420;18.854;2023-04-27T01:02:18;101505.47;;;5.12;57.35
55044;BME280;54902;50.420;18.854;2023-04-27T01:02:51;101507.30;;;5.12;57.36
55044;BME280;54902;50.420;18.854;2023-04-27T01:03:22;101512.73;;;5.12;57.34
55044;BME280;54902;50.420;18.854;2023-04-27T01:03:53;101509.04;;;5.13;57.32
55044;BME280;54902;50.420;18.854;2023-04-27T01:04:24;101510.89;;;5.12;57.34
55044;BME280;54902;50.420;18.854;2023-04-27T01:04:57;101509.04;;;5.13;57.35
55044;BME280;54902;50.420;18.854;2023-04-27T01:05:29;101514.45;;;5.13;57.34
55044;BME280;54902;50.420;18.854;2023-04-27T01:06:00;101515.44;;;5.12;57.37
55044;BME280;54902;50.420;18.854;2023-04-27T01:06:31;101513.60;;;5.12;57.36
55044;BME280;54902;50.420;18.854;2023-04-27T01:07:02;101509.13;;;5.11;57.36
55044;BME280;54902;50.420;18.854;2023-04-27T01:07:37;101508.18;;;5.12;57.38
55044;BME280;54902;50.420;18.854;2023-04-27T01:08:08;101504.62;;;5.12;57.42
55044;BME280;54902;50.420;18.854;2023-04-27T01:08:39;101505.47;;;5.12;57.43
55044;BME280;54902;50.420;18.854;2023-04-27T01:09:10;101501.00;;;5.11;57.42
55044;BME280;54902;50.420;18.854;2023-04-27T01:09:41;101500.91;;;5.13;57.42
55044;BME280;54902;50.420;18.854;2023-04-27T01:10:12;101508.18;;;5.12;57.48
55044;BME280;54902;50.420;18.854;2023-04-27T01:10:43;101506.34;;;5.13;57.46
55044;BME280;54902;50.420;18.854;2023-04-27T01:11:14;101503.63;;;5.13;57.46
55044;BME280;54902;50.420;18.854;2023-04-27T01:11:46;101510.02;;;5.12;57.44
55044;BME280;54902;50.420;18.854;2023-04-27T01:12:17;101513.52;;;5.14;57.41
55044;BME280;54902;50.420;18.854;2023-04-27T01:12:48;101517.16;;;5.13;57.41
55044;BME280;54902;50.420;18.854;2023-04-27T01:13:18;101509.04;;;5.13;57.45
55044;BME280;54902;50.420;18.854;2023-04-27T01:13:50;101509.04;;;5.13;57.44
55044;BME280;54902;50.420;18.854;2023-04-27T01:14:21;101509.04;;;5.13;57.43
55044;BME280;54902;50.420;18.854;2023-04-27T01:14:52;101513.60;;;5.12;57.41
55044;BME280;54902;50.420;18.854;2023-04-27T01:15:23;101514.45;;;5.13;57.42
55044;BME280;54902;50.420;18.854;2023-04-27T01:15:54;101514.45;;;5.13;57.41
55044;BME280;54902;50.420;18.854;2023-04-27T01:16:25;101506.34;;;5.13;57.41
55044;BME280;54902;50.420;18.854;2023-04-27T01:16:56;101498.20;;;5.13;57.43
55044;BME280;54902;50.420;18.854;2023-04-27T01:17:27;101504.62;;;5.12;57.42
55044;BME280;54902;50.420;18.854;2023-04-27T01:17:59;101505.47;;;5.12;57.43
55044;BME280;54902;50.420;18.854;2023-04-27T01:18:31;101507.30;;;5.12;57.42
55044;BME280;54902;50.420;18.854;2023-04-27T01:19:04;101512.73;;;5.12;57.38
55044;BME280;54902;50.420;18.854;2023-04-27T01:19:36;101509.04;;;5.13;57.38
55044;BME280;54902;50.420;18.854;2023-04-27T01:20:10;101508.10;;;5.14;57.33
55044;BME280;54902;50.420;18.854;2023-04-27T01:20:41;101509.94;;;5.13;57.37
55044;BME280;54902;50.420;18.854;2023-04-27T01:21:14;101509.94;;;5.13;57.36
55044;BME280;54902;50.420;18.854;2023-04-27T01:21:45;101509.04;;;5.13;57.38
55044;BME280;54902;50.420;18.854;2023-04-27T01:22:16;101510.81;;;5.14;57.36
55044;BME280;54902;50.420;18.854;2023-04-27T01:22:47;101504.52;;;5.13;57.35
55044;BME280;54902;50.420;18.854;2023-04-27T01:23:18;101516.23;;;5.14;57.37
55044;BME280;54902;50.420;18.854;2023-04-27T01:23:49;101509.04;;;5.13;57.40
55044;BME280;54902;50.420;18.854;2023-04-27T01:24:21;101510.81;;;5.14;57.39
55044;BME280;54902;50.420;18.854;2023-04-27T01:24:51;101512.57;;;5.15;57.38
55044;BME280;54902;50.420;18.854;2023-04-27T01:25:23;101508.96;;;5.14;57.35
55044;BME280;54902;50.420;18.854;2023-04-27T01:25:54;101520.70;;;5.15;57.34
55044;BME280;54902;50.420;18.854;2023-04-27T01:26:25;101512.57;;;5.15;57.33
55044;BME280;54902;50.420;18.854;2023-04-27T01:26:57;101518.84;;;5.15;57.29
55044;BME280;54902;50.420;18.854;2023-04-27T01:27:27;101517.03;;;5.16;57.30
55044;BME280;54902;50.420;18.854;2023-04-27T01:27:58;101514.33;;;5.16;57.34
55044;BME280;54902;50.420;18.854;2023-04-27T01:28:29;101519.74;;;5.16;57.35
55044;BME280;54902;50.420;18.854;2023-04-27T01:29:01;101517.81;;;5.18;57.34
55044;BME280;54902;50.420;18.854;2023-04-27T01:29:32;101516.05;;;5.17;57.32
55044;BME280;54902;50.420;18.854;2023-04-27T01:30:04;101512.41;;;5.18;57.34
55044;BME280;54902;50.420;18.854;2023-04-27T01:30:35;101522.30;;;5.18;57.33
55044;BME280;54902;50.420;18.854;2023-04-27T01:31:06;101517.81;;;5.18;57.37
55044;BME280;54902;50.420;18.854;2023-04-27T01:31:37;101522.30;;;5.18;57.36
55044;BME280;54902;50.420;18.854;2023-04-27T01:32:08;101525.86;;;5.19;57.37
55044;BME280;54902;50.420;18.854;2023-04-27T01:32:39;101515.03;;;5.19;57.35
55044;BME280;54902;50.420;18.854;2023-04-27T01:33:11;101515.93;;;5.19;57.34
55044;BME280;54902;50.420;18.854;2023-04-27T01:33:41;101518.63;;;5.19;57.30
55044;BME280;54902;50.420;18.854;2023-04-27T01:34:12;101516.80;;;5.20;57.35
55044;BME280;54902;50.420;18.854;2023-04-27T01:34:43;101519.51;;;5.20;57.43
55044;BME280;54902;50.420;18.854;2023-04-27T01:35:15;101514.95;;;5.20;57.42
55044;BME280;54902;50.420;18.854;2023-04-27T01:35:46;101519.42;;;5.21;57.41
55044;BME280;54902;50.420;18.854;2023-04-27T01:36:17;101520.32;;;5.22;57.40
55044;BME280;54902;50.420;18.854;2023-04-27T01:36:48;101518.55;;;5.21;57.41
55044;BME280;54902;50.420;18.854;2023-04-27T01:37:19;101507.63;;;5.22;57.42
55044;BME280;54902;50.420;18.854;2023-04-27T01:37:50;101515.76;;;5.22;57.42
55044;BME280;54902;50.420;18.854;2023-04-27T01:38:21;101521.10;;;5.24;57.43
55044;BME280;54902;50.420;18.854;2023-04-27T01:38:53;101513.92;;;5.23;57.38
55044;BME280;54902;50.420;18.854;2023-04-27T01:39:24;101521.18;;;5.22;57.39
55044;BME280;54902;50.420;18.854;2023-04-27T01:39:56;101519.34;;;5.23;57.38
55044;BME280;54902;50.420;18.854;2023-04-27T01:40:27;101511.21;;;5.23;57.38
55044;BME280;54902;50.420;18.854;2023-04-27T01:40:58;101512.11;;;5.23;57.41
55044;BME280;54902;50.420;18.854;2023-04-27T01:41:32;101516.55;;;5.24;57.43
55044;BME280;54902;50.420;18.854;2023-04-27T01:42:03;101519.26;;;5.24;57.44
55044;BME280;54902;50.420;18.854;2023-04-27T01:42:34;101513.84;;;5.24;57.45
55044;BME280;54902;50.420;18.854;2023-04-27T01:43:05;101511.13;;;5.24;57.52
55044;BME280;54902;50.420;18.854;2023-04-27T01:43:36;101513.84;;;5.24;57.51
55044;BME280;54902;50.420;18.854;2023-04-27T01:44:07;101514.73;;;5.25;57.56
55044;BME280;54902;50.420;18.854;2023-04-27T01:44:38;101518.31;;;5.25;57.55
55044;BME280;54902;50.420;18.854;2023-04-27T01:45:10;101514.73;;;5.25;57.54
55044;BME280;54902;50.420;18.854;2023-04-27T01:45:41;101516.55;;;5.24;57.56
55044;BME280;54902;50.420;18.854;2023-04-27T01:46:13;101512.89;;;5.25;57.56
55044;BME280;54902;50.420;18.854;2023-04-27T01:46:44;101520.15;;;5.25;57.55
55044;BME280;54902;50.420;18.854;2023-04-27T01:47:15;101515.60;;;5.25;57.52
55044;BME280;54902;50.420;18.854;2023-04-27T01:47:46;101516.55;;;5.24;57.54
55044;BME280;54902;50.420;18.854;2023-04-27T01:48:20;101520.15;;;5.25;57.56
55044;BME280;54902;50.420;18.854;2023-04-27T01:48:51;101517.45;;;5.25;57.55
55044;BME280;54902;50.420;18.854;2023-04-27T01:49:22;101519.26;;;5.24;57.58
55044;BME280;54902;50.420;18.854;2023-04-27T01:49:52;101521.95;;;5.24;57.59
55044;BME280;54902;50.420;18.854;2023-04-27T01:50:23;101523.81;;;5.24;57.61
55044;BME280;54902;50.420;18.854;2023-04-27T01:50:54;101519.34;;;5.23;57.62
55044;BME280;54902;50.420;18.854;2023-04-27T01:51:25;101517.53;;;5.23;57.62
55044;BME280;54902;50.420;18.854;2023-04-27T01:51:57;101514.82;;;5.23;57.64
55044;BME280;54902;50.420;18.854;2023-04-27T01:52:28;101521.18;;;5.22;57.66
55044;BME280;54902;50.420;18.854;2023-04-27T01:52:59;101513.06;;;5.22;57.67
55044;BME280;54902;50.420;18.854;2023-04-27T01:53:30;101515.76;;;5.22;57.66
55044;BME280;54902;50.420;18.854;2023-04-27T01:54:01;101517.61;;;5.22;57.66
55044;BME280;54902;50.420;18.854;2023-04-27T01:54:32;101521.27;;;5.21;57.64
55044;BME280;54902;50.420;18.854;2023-04-27T01:55:03;101514.00;;;5.21;57.63
55044;BME280;54902;50.420;18.854;2023-04-27T01:55:35;101524.83;;;5.21;57.66
55044;BME280;54902;50.420;18.854;2023-04-27T01:56:06;101505.96;;;5.20;57.67
55044;BME280;54902;50.420;18.854;2023-04-27T01:56:37;101518.63;;;5.19;57.67
55044;BME280;54902;50.420;18.854;2023-04-27T01:57:08;101497.52;;;5.09;57.65
55044;BME280;54902;50.420;18.854;2023-04-27T01:57:38;101514.16;;;5.18;57.66
55044;BME280;54902;50.420;18.854;2023-04-27T01:58:10;101515.98;;;5.18;57.73
55044;BME280;54902;50.420;18.854;2023-04-27T01:58:41;101512.41;;;5.18;57.74
55044;BME280;54902;50.420;18.854;2023-04-27T01:59:12;101523.23;;;5.18;57.73
55044;BME280;54902;50.420;18.854;2023-04-27T01:59:43;101508.91;;;5.16;57.70
55044;BME280;54902;50.420;18.854;2023-04-27T02:00:14;101516.05;;;5.17;57.70
55044;BME280;54902;50.420;18.854;2023-04-27T02:00:45;101518.77;;;5.17;57.70
55044;BME280;54902;50.420;18.854;2023-04-27T02:01:16;101515.27;;;5.15;57.71
55044;BME280;54902;50.420;18.854;2023-04-27T02:01:46;101510.81;;;5.14;57.71
55044;BME280;54902;50.420;18.854;2023-04-27T02:02:17;101521.64;;;5.14;57.70
55044;BME280;54902;50.420;18.854;2023-04-27T02:02:48;101516.23;;;5.14;57.69
55044;BME280;54902;50.420;18.854;2023-04-27T02:03:26;101519.88;;;5.13;57.72
55044;BME280;54902;50.420;18.854;2023-04-27T02:03:57;101508.34;;;5.09;57.74
55044;BME280;54902;50.420;18.854;2023-04-27T02:04:28;101518.15;;;5.12;57.72
55044;BME280;54902;50.420;18.854;2023-04-27T02:04:59;101518.15;;;5.12;57.75
55044;BME280;54902;50.420;18.854;2023-04-27T02:05:30;101517.25;;;5.11;57.75
55044;BME280;54902;50.420;18.854;2023-04-27T02:06:01;101523.56;;;5.12;57.74
55044;BME280;54902;50.420;18.854;2023-04-27T02:06:32;101515.48;;;5.10;57.74
55044;BME280;54902;50.420;18.854;2023-04-27T02:07:03;101520.90;;;5.10;57.72
55044;BME280;54902;50.420;18.854;2023-04-27T02:07:34;101521.80;;;5.11;57.77
55044;BME280;54902;50.420;18.854;2023-04-27T02:08:05;101513.77;;;5.09;57.76
55044;BME280;54902;50.420;18.854;2023-04-27T02:08:36;101520.04;;;5.10;57.75
55044;BME280;54902;50.420;18.854;2023-04-27T02:09:07;101516.48;;;5.09;57.75
55044;BME280;54902;50.420;18.854;2023-04-27T02:09:38;101518.28;;;5.09;57.79
55044;BME280;54902;50.420;18.854;2023-04-27T02:10:09;101526.47;;;5.07;57.79
55044;BME280;54902;50.420;18.854;2023-04-27T02:10:40;101520.20;;;5.07;57.78
55044;BME280;54902;50.420;18.854;2023-04-27T02:11:11;101515.65;;;5.07;57.80
55044;BME280;54902;50.420;18.854;2023-04-27T02:11:42;101523.77;;;5.07;57.77
55044;BME280;54902;50.420;18.854;2023-04-27T02:12:13;101524.71;;;5.06;57.79
55044;BME280;54902;50.420;18.854;2023-04-27T02:12:44;101513.02;;;5.06;57.81
55044;BME280;54902;50.420;18.854;2023-04-27T02:13:15;101520.27;;;5.05;57.78
55044;BME280;54902;50.420;18.854;2023-04-27T02:13:46;101518.44;;;5.06;57.78
55044;BME280;54902;50.420;18.854;2023-04-27T02:14:18;101523.85;;;5.06;57.80
55044;BME280;54902;50.420;18.854;2023-04-27T02:14:49;101520.33;;;5.04;57.79
55044;BME280;54902;50.420;18.854;2023-04-27T02:15:20;101520.33;;;5.04;57.82
55044;BME280;54902;50.420;18.854;2023-04-27T02:15:51;101523.03;;;5.04;57.81
55044;BME280;54902;50.420;18.854;2023-04-27T02:16:22;101525.74;;;5.04;57.85
55044;BME280;54902;50.420;18.854;2023-04-27T02:16:53;101525.74;;;5.04;57.84
55044;BME280;54902;50.420;18.854;2023-04-27T02:17:24;101525.74;;;5.04;57.83
55044;BME280;54902;50.420;18.854;2023-04-27T02:17:56;101525.74;;;5.04;57.83
55044;BME280;54902;50.420;18.854;2023-04-27T02:18:28;101522.25;;;5.02;57.82
55044;BME280;54902;50.420;18.854;2023-04-27T02:18:58;101515.07;;;5.01;57.81
55044;BME280;54902;50.420;18.854;2023-04-27T02:19:29;101516.84;;;5.02;57.78
55044;BME280;54902;50.420;18.854;2023-04-27T02:20:00;101520.49;;;5.01;57.78
55044;BME280;54902;50.420;18.854;2023-04-27T02:20:32;101524.96;;;5.02;57.78
55044;BME280;54902;50.420;18.854;2023-04-27T02:21:09;101517.78;;;5.01;57.81
55044;BME280;54902;50.420;18.854;2023-04-27T02:21:41;101515.07;;;5.01;57.82
55044;BME280;54902;50.420;18.854;2023-04-27T02:22:12;101515.98;;;5.01;57.83
55044;BME280;54902;50.420;18.854;2023-04-27T02:22:43;101524.13;;;5.00;57.83
55044;BME280;54902;50.420;18.854;2023-04-27T02:23:14;101525.12;;;4.99;57.84
55044;BME280;54902;50.420;18.854;2023-04-27T02:23:45;101513.39;;;4.98;57.85
55044;BME280;54902;50.420;18.854;2023-04-27T02:24:16;101515.23;;;4.98;57.84
55044;BME280;54902;50.420;18.854;2023-04-27T02:24:47;101522.49;;;4.97;57.83
55044;BME280;54902;50.420;18.854;2023-04-27T02:25:18;101520.65;;;4.98;57.81
55044;BME280;54902;50.420;18.854;2023-04-27T02:25:49;101522.41;;;4.99;57.84
55044;BME280;54902;50.420;18.854;2023-04-27T02:26:21;101518.02;;;4.96;57.88
55044;BME280;54902;50.420;18.854;2023-04-27T02:26:58;101517.09;;;4.97;57.87
55044;BME280;54902;50.420;18.854;2023-04-27T02:27:29;101516.18;;;4.97;57.88
55044;BME280;54902;50.420;18.854;2023-04-27T02:28:00;101513.47;;;4.97;57.89
55044;BME280;54902;50.420;18.854;2023-04-27T02:28:31;101518.02;;;4.96;57.88
55044;BME280;54902;50.420;18.854;2023-04-27T02:29:02;101513.47;;;4.97;57.89
55044;BME280;54902;50.420;18.854;2023-04-27T02:29:33;101518.10;;;4.95;57.90
55044;BME280;54902;50.420;18.854;2023-04-27T02:30:09;101526.23;;;4.95;57.90
55044;BME280;54902;50.420;18.854;2023-04-27T02:30:41;101522.62;;;4.94;57.90
55044;BME280;54902;50.420;18.854;2023-04-27T02:31:13;101521.75;;;4.94;57.89
55044;BME280;54902;50.420;18.854;2023-04-27T02:31:44;101519.05;;;4.94;57.90
55044;BME280;54902;50.420;18.854;2023-04-27T02:32:15;101519.05;;;4.94;57.90
55044;BME280;54902;50.420;18.854;2023-04-27T02:32:46;101519.05;;;4.94;57.91
55044;BME280;54902;50.420;18.854;2023-04-27T02:33:17;101515.52;;;4.92;57.94
55044;BME280;54902;50.420;18.854;2023-04-27T02:33:48;101513.71;;;4.92;57.94
55044;BME280;54902;50.420;18.854;2023-04-27T02:34:19;101515.52;;;4.92;57.91
55044;BME280;54902;50.420;18.854;2023-04-27T02:34:50;101526.34;;;4.92;57.90
55044;BME280;54902;50.420;18.854;2023-04-27T02:35:21;101529.05;;;4.92;57.92
55044;BME280;54902;50.420;18.854;2023-04-27T02:35:52;101527.33;;;4.91;57.90
55044;BME280;54902;50.420;18.854;2023-04-27T02:36:23;101525.48;;;4.91;57.92
55044;BME280;54902;50.420;18.854;2023-04-27T02:36:54;101524.63;;;4.91;57.92
55044;BME280;54902;50.420;18.854;2023-04-27T02:37:24;101522.86;;;4.90;57.90
55044;BME280;54902;50.420;18.854;2023-04-27T02:37:56;101516.55;;;4.89;57.93
55044;BME280;54902;50.420;18.854;2023-04-27T02:38:28;101521.10;;;4.89;57.94
55044;BME280;54902;50.420;18.854;2023-04-27T02:38:59;101531.05;;;4.88;57.97
55044;BME280;54902;50.420;18.854;2023-04-27T02:39:30;101526.51;;;4.89;57.94
55044;BME280;54902;50.420;18.854;2023-04-27T02:40:02;101524.75;;;4.88;57.91
55044;BME280;54902;50.420;18.854;2023-04-27T02:40:36;101530.16;;;4.88;57.91
55044;BME280;54902;50.420;18.854;2023-04-27T02:41:07;101518.47;;;4.87;57.97
55044;BME280;54902;50.420;18.854;2023-04-27T02:41:38;101528.42;;;4.87;58.00
55044;BME280;54902;50.420;18.854;2023-04-27T02:42:09;101530.24;;;4.86;57.99
55044;BME280;54902;50.420;18.854;2023-04-27T02:42:40;101527.53;;;4.86;58.00
55044;BME280;54902;50.420;18.854;2023-04-27T02:43:11;101523.96;;;4.86;57.98
55044;BME280;54902;50.420;18.854;2023-04-27T02:43:42;101519.49;;;4.85;57.99
55044;BME280;54902;50.420;18.854;2023-04-27T02:44:13;101522.20;;;4.85;57.99